createdAt,value
2022-12-01T00:01:14.632Z,103749.38
2022-12-01T00:03:43.353Z,103737.44
2022-12-01T00:06:12.457Z,103745.78
2022-12-01T00:08:39.211Z,103747.41
2022-12-01T00:11:08.107Z,103751.59
2022-12-01T00:13:36.326Z,103741.13
2022-12-01T00:16:15.357Z,103738.59
2022-12-01T00:18:42.448Z,103737.66
2022-12-01T00:21:15.770Z,103743.44
2022-12-01T00:23:49.746Z,103748.72
2022-12-01T00:26:17.764Z,103735.13
2022-12-01T00:28:45.008Z,103758.50
2022-12-01T00:31:13.622Z,103746.41
2022-12-01T00:33:40.203Z,103750.72
2022-12-01T00:36:07.692Z,103735.34
2022-12-01T00:38:35.304Z,103753.47
2022-12-01T00:41:02.813Z,103760.34
2022-12-01T00:43:29.716Z,103763.06
2022-12-01T00:45:56.786Z,103763.59
2022-12-01T00:48:23.811Z,103763.06
2022-12-01T00:50:52.331Z,103762.53
2022-12-01T00:53:19.228Z,103737.53
2022-12-01T00:55:46.028Z,103755.63
2022-12-01T00:58:12.801Z,103758.34
2022-12-01T01:00:42.475Z,103761.25
2022-12-01T01:03:10.159Z,103763.59
2022-12-01T01:05:40.786Z,103752.38
2022-12-01T01:08:12.512Z,103746.56
2022-12-01T01:10:40.532Z,103742.38
2022-12-01T01:13:09.789Z,103750.00
2022-12-01T01:15:37.971Z,103741.31
2022-12-01T01:18:05.427Z,103732.59
2022-12-01T01:20:35.602Z,103736.41
2022-12-01T01:23:02.243Z,103739.66
2022-12-01T01:25:28.808Z,103735.81
2022-12-01T01:27:55.441Z,103742.72
2022-12-01T01:30:23.551Z,103737.81
2022-12-01T01:32:50.222Z,103722.94
2022-12-01T01:35:16.831Z,103735.28
2022-12-01T01:37:45.753Z,103737.81
2022-12-01T01:40:12.575Z,103737.25
2022-12-01T01:42:39.174Z,103730.03
2022-12-01T01:45:20.219Z,103729.84
2022-12-01T01:47:48.528Z,103726.44
2022-12-01T01:50:18.478Z,103731.16
2022-12-01T01:52:52.624Z,103730.38
2022-12-01T01:55:19.740Z,103710.09
2022-12-01T01:57:46.693Z,103724.59
2022-12-01T02:00:18.559Z,103722.06
2022-12-01T02:02:47.351Z,103716.97
2022-12-01T02:05:21.326Z,103723.69
2022-12-01T02:07:48.779Z,103721.72
2022-12-01T02:10:22.630Z,103713.00
2022-12-01T02:12:52.185Z,103721.88
2022-12-01T02:15:42.348Z,103715.75
2022-12-01T02:18:32.010Z,103719.00
2022-12-01T02:21:10.735Z,103714.81
2022-12-01T02:23:40.329Z,103717.91
2022-12-01T02:26:17.532Z,103722.63
2022-12-01T02:29:02.414Z,103718.66
2022-12-01T02:31:49.674Z,103711.78
2022-12-01T02:34:38.113Z,103717.41
2022-12-01T02:37:14.766Z,103697.88
2022-12-01T02:40:01.521Z,103709.44
2022-12-01T02:42:59.327Z,103713.28
2022-12-01T02:45:34.417Z,103714.72
2022-12-01T02:48:05.907Z,103706.03
2022-12-01T02:50:35.768Z,103704.94
2022-12-01T02:53:08.092Z,103701.16
2022-12-01T02:55:34.812Z,103695.38
2022-12-01T02:58:01.490Z,103702.56
2022-12-01T03:00:30.971Z,103697.69
2022-12-01T03:03:15.631Z,103703.84
2022-12-01T03:06:18.595Z,103700.22
2022-12-01T03:09:09.215Z,103688.81
2022-12-01T03:12:00.662Z,103695.16
2022-12-01T03:14:45.743Z,103697.66
2022-12-01T03:17:19.976Z,103689.00
2022-12-01T03:19:53.763Z,103697.13
2022-12-01T03:22:26.020Z,103699.13
2022-12-01T03:24:55.825Z,103693.53
2022-12-01T03:27:28.135Z,103698.22
2022-12-01T03:29:58.114Z,103690.78
2022-12-01T03:32:33.614Z,103692.81
2022-12-01T03:35:19.642Z,103687.72
2022-12-01T03:37:57.748Z,103677.78
2022-12-01T03:40:29.585Z,103689.72
2022-12-01T03:42:59.652Z,103698.41
2022-12-01T03:45:31.733Z,103689.00
2022-12-01T03:47:58.748Z,103697.16
2022-12-01T03:50:33.494Z,103699.69
2022-12-01T03:53:13.422Z,103700.97
2022-12-01T03:55:44.235Z,103709.47
2022-12-01T03:58:20.507Z,103710.34
2022-12-01T04:00:50.712Z,103703.88
2022-12-01T04:03:23.054Z,103712.72
2022-12-01T04:05:49.739Z,103709.13
2022-12-01T04:08:17.113Z,103705.28
2022-12-01T04:10:43.833Z,103649.25
2022-12-01T16:56:01.188Z,103633.25
2022-12-01T16:58:28.167Z,103637.03
2022-12-01T17:00:54.928Z,103626.13
2022-12-01T17:03:28.027Z,103636.00
2022-12-01T17:05:59.250Z,103639.03
2022-12-01T17:08:26.050Z,103625.03
2022-12-01T17:10:54.837Z,103627.34
2022-12-01T17:13:25.555Z,103622.19
2022-12-01T17:15:54.262Z,103609.00
2022-12-01T17:18:23.065Z,103630.56
2022-12-01T17:21:00.914Z,103635.59
2022-12-01T17:23:29.828Z,103622.00
2022-12-01T17:25:56.711Z,103630.34
2022-12-01T17:28:23.334Z,103617.97
2022-12-01T17:30:50.135Z,103624.78
2022-12-01T17:33:16.863Z,103622.25
2022-12-01T17:35:43.587Z,103575.13
2022-12-01T17:38:10.367Z,103626.59
2022-12-01T17:40:37.155Z,103623.72
2022-12-01T17:43:03.757Z,103622.00
2022-12-01T17:45:30.400Z,103633.56
2022-12-01T17:47:57.100Z,103618.38
2022-12-01T17:50:23.682Z,103625.03
2022-12-01T17:52:50.312Z,103620.34
2022-12-01T17:55:19.664Z,103618.56
2022-12-01T17:57:46.292Z,103625.03
2022-12-01T18:00:14.728Z,103620.81
2022-12-01T18:02:41.359Z,103621.44
2022-12-01T18:05:08.405Z,103625.59
2022-12-01T18:07:36.751Z,103636.94
2022-12-01T18:10:03.965Z,103633.31
2022-12-01T18:12:33.449Z,103635.53
2022-12-01T18:15:00.030Z,103627.25
2022-12-01T18:17:26.886Z,103619.50
2022-12-01T18:19:53.560Z,103600.97
2022-12-01T18:22:21.172Z,103619.25
2022-12-01T18:24:48.082Z,103619.81
2022-12-01T18:27:14.961Z,103622.75
2022-12-01T18:29:42.451Z,103639.16
2022-12-01T18:32:09.122Z,103637.91
2022-12-01T18:34:35.739Z,103639.25
2022-12-01T18:37:04.175Z,103641.41
2022-12-01T18:39:30.774Z,103643.78
2022-12-01T18:41:57.608Z,103633.28
2022-12-01T18:44:25.110Z,103639.28
2022-12-01T18:46:54.072Z,103633.84
2022-12-01T18:49:20.947Z,103643.13
2022-12-01T18:51:48.227Z,103651.47
2022-12-01T18:54:17.238Z,103634.56
2022-12-01T18:56:45.769Z,103643.06
2022-12-01T18:59:13.873Z,103653.56
2022-12-01T19:01:48.656Z,103662.66
2022-12-01T19:04:17.275Z,103643.78
2022-12-01T19:06:52.708Z,103645.78
2022-12-01T19:09:22.304Z,103650.31
2022-12-01T19:11:49.308Z,103654.81
2022-12-01T19:14:22.049Z,103655.38
2022-12-01T19:16:58.827Z,103646.72
2022-12-01T19:19:26.368Z,103645.50
2022-12-01T19:21:54.016Z,103625.06
2022-12-01T19:24:23.281Z,103648.19
2022-12-01T19:26:49.847Z,103645.72
2022-12-01T19:29:16.684Z,103658.38
2022-12-01T19:31:43.752Z,103644.44
2022-12-01T19:34:13.605Z,103647.91
2022-12-01T19:36:40.199Z,103661.13
2022-12-01T19:39:07.844Z,103653.22
2022-12-01T19:41:34.882Z,103662.06
2022-12-01T19:44:02.260Z,103672.75
2022-12-01T19:46:29.024Z,103673.66
2022-12-01T19:49:00.212Z,103669.28
2022-12-01T19:51:30.481Z,103665.19
2022-12-01T19:53:58.474Z,103675.50
2022-12-01T19:56:28.166Z,103676.56
2022-12-01T19:58:55.982Z,103676.56
2022-12-01T20:01:22.813Z,103684.88
2022-12-01T20:03:51.476Z,103683.25
2022-12-01T20:06:21.587Z,103676.91
2022-12-01T20:08:48.619Z,103675.50
2022-12-01T20:11:15.515Z,103673.56
2022-12-01T20:13:45.017Z,103684.59
2022-12-01T20:16:18.101Z,103675.19
2022-12-01T20:18:47.332Z,103659.84
2022-12-01T20:21:19.317Z,103673.69
2022-12-01T20:23:51.492Z,103672.22
2022-12-01T20:26:19.696Z,103666.63
2022-12-01T20:28:49.034Z,103675.13
2022-12-01T20:31:22.724Z,103668.53
2022-12-01T20:33:50.701Z,103670.47
2022-12-01T20:36:17.458Z,103621.41
2022-12-01T20:38:44.145Z,103664.00
2022-12-01T20:41:11.574Z,103670.91
2022-12-01T20:43:38.422Z,103666.72
2022-12-01T20:46:05.450Z,103664.88
2022-12-01T20:48:32.940Z,103661.19
2022-12-01T20:51:01.119Z,103660.41
2022-12-01T20:53:28.375Z,103662.72
2022-12-01T20:55:55.783Z,103655.19
2022-12-01T20:58:22.459Z,103649.38
2022-12-01T21:00:49.307Z,103651.84
2022-12-01T21:03:15.883Z,103659.56
2022-12-01T21:05:43.502Z,103649.41
2022-12-01T21:08:13.937Z,103660.22
2022-12-01T21:10:47.031Z,103659.84
2022-12-01T21:13:42.813Z,103662.38
2022-12-01T21:16:14.580Z,103655.31
2022-12-01T21:19:08.078Z,103659.75
2022-12-01T21:21:43.715Z,103647.91
2022-12-01T21:24:21.204Z,103667.47
2022-12-01T21:26:58.687Z,103657.47
2022-12-01T21:29:39.420Z,103655.19
2022-12-01T21:32:23.164Z,103662.59
2022-12-01T21:34:50.202Z,103658.16
2022-12-01T21:37:23.015Z,103657.75
2022-12-01T21:39:57.711Z,103663.88
2022-12-01T21:42:30.488Z,103656.25
2022-12-01T21:44:57.683Z,103659.06
2022-12-01T21:47:27.445Z,103655.44
2022-12-01T21:49:56.899Z,103669.75
2022-12-01T21:52:30.916Z,103657.91
2022-12-01T21:55:08.965Z,103650.03
2022-12-01T21:57:52.470Z,103640.81
2022-12-01T22:00:36.830Z,103660.53
2022-12-01T22:03:09.179Z,103667.59
2022-12-01T22:05:41.505Z,103673.59
2022-12-01T22:08:50.831Z,103669.97
2022-12-01T22:11:23.151Z,103666.56
2022-12-01T22:13:49.678Z,103678.34
2022-12-01T22:16:22.498Z,103674.00
2022-12-01T22:19:25.092Z,103680.72
2022-12-01T22:22:02.497Z,103685.66
2022-12-01T22:24:46.679Z,103686.56
2022-12-01T22:27:23.341Z,103686.00
2022-12-01T22:29:52.287Z,103673.09
2022-12-01T22:32:44.196Z,103691.41
2022-12-01T22:35:23.070Z,103687.63
2022-12-01T22:41:05.989Z,103699.97
2022-12-01T22:43:46.656Z,103695.84
2022-12-01T22:46:29.432Z,103701.66
2022-12-01T22:48:59.707Z,103699.53
2022-12-01T22:51:29.514Z,103708.81
2022-12-01T22:54:18.305Z,103705.69
2022-12-01T22:56:48.935Z,103708.06
2022-12-01T22:59:15.536Z,103714.22
2022-12-01T23:01:48.678Z,103706.75
2022-12-01T23:04:26.505Z,103704.28
2022-12-01T23:07:17.991Z,103704.63
2022-12-01T23:09:44.747Z,103713.09
2022-12-01T23:12:11.242Z,103708.00
2022-12-01T23:14:44.622Z,103713.81
2022-12-01T23:17:16.617Z,103698.31
2022-12-01T23:19:43.251Z,103703.47
2022-12-01T23:22:11.034Z,103705.44
2022-12-01T23:24:38.878Z,103696.00
2022-12-01T23:27:06.606Z,103695.59
2022-12-01T23:29:35.415Z,103691.38
2022-12-01T23:32:02.093Z,103697.16
2022-12-01T23:34:29.022Z,103700.03
2022-12-01T23:36:56.600Z,103691.28
2022-12-01T23:39:31.975Z,103694.75
2022-12-01T23:41:59.580Z,103696.53
2022-12-01T23:44:29.128Z,103702.00
2022-12-01T23:46:57.782Z,103698.84
2022-12-01T23:49:30.846Z,103697.22
2022-12-01T23:52:01.128Z,103698.84
2022-12-01T23:54:32.672Z,103698.53
2022-12-01T23:57:24.283Z,103707.97
2022-12-01T23:59:55.151Z,103696.28
